Time;durP1;ratioP1;P1;durP2;ratioP2;P2;SDS_P1;SDS_P2;PMS_P1;PMS_P2;Temp;Humidity;BMP_temperature;BMP_pressure;BME280_temperature;BME280_humidity;BME280_pressure;Samples;Min_cycle;Max_cycle;Signal;HPM_P1;HPM_P2
2022/01/27 00:01:07;;;;;;;12.25;7.30;;;18.70;40.80;;;;;;5069813;28;20076;-66
2022/01/27 00:03:43;;;;;;;10.80;6.90;;;18.70;40.80;;;;;;5071519;28;20446;-66
2022/01/27 00:06:10;;;;;;;10.02;6.50;;;18.70;40.80;;;;;;5054391;28;20036;-66
2022/01/27 00:08:47;;;;;;;10.73;6.18;;;18.70;40.80;;;;;;5061055;28;20528;-66
2022/01/27 00:11:15;;;;;;;10.65;6.90;;;18.70;40.80;;;;;;5047993;28;20423;-66
2022/01/27 00:13:48;;;;;;;10.52;6.78;;;18.70;40.80;;;;;;5057472;28;20044;-66
2022/01/27 00:16:24;;;;;;;9.55;6.50;;;18.70;40.80;;;;;;5058955;28;20383;-66
2022/01/27 00:18:52;;;;;;;9.10;6.20;;;18.70;40.70;;;;;;5071355;28;20020;-66
2022/01/27 00:21:22;;;;;;;9.75;6.70;;;18.70;40.70;;;;;;5066836;28;20107;-66
2022/01/27 00:23:48;;;;;;;9.80;6.63;;;18.70;40.80;;;;;;5062272;28;20028;-66
2022/01/27 00:26:15;;;;;;;9.90;6.85;;;18.60;40.60;;;;;;5070712;28;20536;-65
2022/01/27 00:28:41;;;;;;;10.05;6.68;;;18.60;40.60;;;;;;5065712;28;20413;-65
2022/01/27 00:31:08;;;;;;;9.93;6.47;;;18.60;40.60;;;;;;5070221;28;20036;-66
2022/01/27 00:33:33;;;;;;;9.80;6.57;;;18.60;40.60;;;;;;5066777;28;20040;-66
2022/01/27 00:35:59;;;;;;;9.45;6.53;;;18.60;40.50;;;;;;5058621;28;20024;-66
2022/01/27 00:38:25;;;;;;;9.25;6.20;;;18.60;40.50;;;;;;5055036;28;20116;-66
2022/01/27 00:40:51;;;;;;;9.32;6.28;;;18.60;40.50;;;;;;5061205;28;20383;-66
2022/01/27 00:43:17;;;;;;;8.80;6.30;;;18.60;40.50;;;;;;5054727;28;20087;-66
2022/01/27 00:45:43;;;;;;;9.63;6.50;;;18.60;40.50;;;;;;5063842;28;20029;-66
2022/01/27 00:48:09;;;;;;;8.95;6.20;;;18.60;40.50;;;;;;5062543;28;20091;-66
2022/01/27 00:50:37;;;;;;;9.52;6.25;;;18.60;40.60;;;;;;5058088;28;20462;-66
2022/01/27 00:53:19;;;;;;;8.70;6.20;;;18.60;40.50;;;;;;5063741;28;20040;-66
2022/01/27 00:55:44;;;;;;;10.27;5.80;;;18.50;40.50;;;;;;5070559;28;20013;-66
2022/01/27 00:58:28;;;;;;;9.82;6.38;;;18.50;40.50;;;;;;5063411;28;20476;-65
2022/01/27 01:00:59;;;;;;;9.38;6.05;;;18.50;40.50;;;;;;5068208;28;20060;-65
2022/01/27 01:03:36;;;;;;;10.50;6.90;;;18.50;40.50;;;;;;5053252;28;20091;-65
2022/01/27 01:19:39;;;;;;;8.32;5.75;;;18.40;40.40;;;;;;5014631;28;20053;-66
2022/01/27 01:33:05;;;;;;;8.05;5.72;;;18.40;40.50;;;;;;5076203;28;20065;-66
2022/01/27 01:35:48;;;;;;;9.30;6.18;;;18.30;40.40;;;;;;5075521;28;20037;-66
2022/01/27 01:38:18;;;;;;;8.13;5.72;;;18.30;40.40;;;;;;5073472;28;20540;-66
2022/01/27 01:40:48;;;;;;;8.85;6.05;;;18.30;40.40;;;;;;5074814;28;20119;-66
2022/01/27 01:43:14;;;;;;;9.02;5.93;;;18.30;40.40;;;;;;5068381;28;20155;-66
2022/01/27 01:45:40;;;;;;;7.97;5.18;;;18.30;40.50;;;;;;5066603;28;20036;-66
2022/01/27 01:48:06;;;;;;;8.75;6.00;;;18.30;40.40;;;;;;5071960;28;20032;-66
2022/01/27 01:50:31;;;;;;;7.38;5.53;;;18.30;40.40;;;;;;5075372;28;20029;-66
2022/01/27 01:52:57;;;;;;;8.35;5.47;;;18.30;40.40;;;;;;5064191;28;20039;-66
2022/01/27 01:55:23;;;;;;;8.18;5.60;;;18.20;40.30;;;;;;5057323;28;20039;-65
2022/01/27 01:57:50;;;;;;;7.85;5.60;;;18.20;40.30;;;;;;5066681;28;20060;-65
2022/01/27 02:00:17;;;;;;;7.65;5.68;;;18.20;40.30;;;;;;5065034;28;20083;-65
2022/01/27 02:02:43;;;;;;;7.20;5.10;;;18.30;40.40;;;;;;5062535;28;20116;-65
2022/01/27 02:05:09;;;;;;;7.20;5.28;;;18.30;40.30;;;;;;5057632;28;20112;-65
2022/01/27 02:07:51;;;;;;;9.68;5.95;;;18.30;40.30;;;;;;5058176;28;20061;-65
2022/01/27 02:17:58;;;;;;;8.80;5.55;;;18.20;40.20;;;;;;5071971;28;20395;-65
2022/01/27 02:18:39;;;;;;;7.05;5.05;;;18.10;40.30;;;;;;5070520;28;20086;-65
2022/01/27 02:21:04;;;;;;;8.55;5.13;;;18.10;40.30;;;;;;5075257;28;20025;-66
2022/01/27 02:23:30;;;;;;;8.18;5.45;;;18.10;40.30;;;;;;5071858;28;20396;-65
2022/01/27 02:25:55;;;;;;;7.07;5.18;;;18.10;40.30;;;;;;5073156;28;20418;-65
2022/01/27 02:28:21;;;;;;;9.40;5.43;;;18.10;40.30;;;;;;5059951;28;20037;-65
2022/01/27 02:30:47;;;;;;;7.45;5.15;;;18.10;40.30;;;;;;5060391;28;20416;-65
2022/01/27 02:33:12;;;;;;;8.23;5.13;;;18.10;40.30;;;;;;5073672;28;20108;-65
2022/01/27 02:35:38;;;;;;;7.78;5.15;;;18.10;41.30;;;;;;5072095;28;20021;-65
2022/01/27 02:38:05;;;;;;;7.80;5.15;;;18.10;40.30;;;;;;5068386;28;20060;-65
2022/01/27 02:40:48;;;;;;;7.57;5.40;;;18.10;40.30;;;;;;5072514;28;20036;-65
2022/01/27 02:43:14;;;;;;;8.18;4.93;;;18.10;40.40;;;;;;5071091;28;20044;-65
2022/01/27 02:45:50;;;;;;;7.85;5.15;;;18.00;40.20;;;;;;5060712;28;20041;-66
2022/01/27 02:48:15;;;;;;;8.63;5.07;;;18.00;40.20;;;;;;5056911;28;20040;-65
2022/01/27 02:50:43;;;;;;;7.53;4.93;;;18.00;40.30;;;;;;5060652;28;20369;-65
2022/01/27 02:53:09;;;;;;;8.15;4.97;;;18.00;40.30;;;;;;5064082;28;20012;-65
2022/01/27 02:55:35;;;;;;;7.53;5.00;;;18.00;40.30;;;;;;5074081;28;20067;-65
2022/01/27 02:58:03;;;;;;;7.75;4.20;;;18.00;40.30;;;;;;5074886;28;20020;-65
2022/01/27 03:00:30;;;;;;;6.97;4.72;;;18.00;40.30;;;;;;5073780;28;20074;-66
2022/01/27 03:02:55;;;;;;;6.70;4.57;;;18.00;40.30;;;;;;5056238;28;20112;-66
2022/01/27 03:05:21;;;;;;;6.65;4.68;;;18.00;40.30;;;;;;5069828;28;20117;-65
2022/01/27 03:07:48;;;;;;;6.18;4.60;;;18.00;40.30;;;;;;5066515;28;20522;-65
2022/01/27 03:10:18;;;;;;;7.85;4.80;;;18.00;40.40;;;;;;5055891;28;20384;-65
2022/01/27 03:12:44;;;;;;;7.20;4.47;;;18.00;40.30;;;;;;5061931;28;20048;-65
2022/01/27 03:15:11;;;;;;;7.03;5.07;;;17.90;40.30;;;;;;5073807;28;20020;-65
2022/01/27 03:17:40;;;;;;;6.38;4.38;;;18.00;40.40;;;;;;5071199;28;20033;-66
2022/01/27 03:20:08;;;;;;;6.38;4.43;;;17.90;40.30;;;;;;5060247;28;20025;-65
2022/01/27 03:22:34;;;;;;;7.53;5.00;;;17.90;40.30;;;;;;5072034;28;20082;-65
2022/01/27 03:25:00;;;;;;;6.40;4.68;;;17.90;40.30;;;;;;5074371;28;20577;-65
2022/01/27 03:27:27;;;;;;;8.50;4.95;;;17.90;40.30;;;;;;5070795;28;20036;-65
2022/01/27 03:29:53;;;;;;;6.90;4.80;;;17.90;40.30;;;;;;5053601;28;20369;-65
2022/01/27 03:32:20;;;;;;;7.30;4.78;;;17.90;41.30;;;;;;5065325;28;20030;-65
2022/01/27 03:34:46;;;;;;;6.90;4.60;;;17.90;40.30;;;;;;5066314;28;20078;-65
2022/01/27 03:37:12;;;;;;;7.35;4.97;;;17.90;40.30;;;;;;5063245;28;20060;-66
2022/01/27 03:39:39;;;;;;;6.47;4.55;;;17.90;40.40;;;;;;5064921;28;20468;-66
2022/01/27 03:42:06;;;;;;;7.05;4.53;;;17.80;40.30;;;;;;5062489;28;20107;-66
2022/01/27 03:44:32;;;;;;;7.88;4.68;;;17.90;40.40;;;;;;5069453;28;20040;-66
2022/01/27 03:46:58;;;;;;;6.45;4.43;;;17.80;41.30;;;;;;5063801;28;20037;-66
2022/01/27 03:49:23;;;;;;;6.22;4.53;;;17.80;40.30;;;;;;5065478;28;20123;-66
2022/01/27 03:51:50;;;;;;;7.50;4.95;;;17.80;40.30;;;;;;5064417;28;20036;-66
2022/01/27 03:54:16;;;;;;;6.07;4.30;;;17.80;40.30;;;;;;5054334;28;20028;-66
2022/01/27 03:56:42;;;;;;;6.40;4.18;;;17.80;40.30;;;;;;5073071;28;20032;-66
2022/01/27 03:59:07;;;;;;;6.75;4.60;;;17.80;40.40;;;;;;5071764;28;20511;-66
2022/01/27 04:01:33;;;;;;;7.28;4.70;;;17.80;40.30;;;;;;5072314;28;20028;-66
2022/01/27 04:04:00;;;;;;;6.30;4.50;;;17.80;40.30;;;;;;5040726;28;20033;-66
2022/01/27 04:06:35;;;;;;;5.93;4.25;;;17.80;40.40;;;;;;5072007;28;20112;-66
2022/01/27 04:09:03;;;;;;;6.10;4.53;;;17.80;40.30;;;;;;5069940;28;20107;-66
2022/01/27 04:11:28;;;;;;;5.93;4.40;;;17.70;40.30;;;;;;5055821;28;20025;-66
2022/01/27 04:13:54;;;;;;;7.32;4.65;;;17.80;40.40;;;;;;5053586;28;20380;-66
2022/01/27 04:16:20;;;;;;;7.15;4.40;;;17.70;41.30;;;;;;5044307;28;20504;-66
2022/01/27 04:18:46;;;;;;;6.63;4.72;;;17.70;40.30;;;;;;5072461;28;20479;-66
2022/01/27 04:21:12;;;;;;;5.70;4.28;;;17.70;40.40;;;;;;5073035;28;20036;-65
2022/01/27 04:23:38;;;;;;;6.68;4.32;;;17.70;40.40;;;;;;5060768;28;20020;-65
2022/01/27 04:26:05;;;;;;;5.97;4.10;;;17.70;40.40;;;;;;5061703;28;20040;-65
2022/01/27 04:28:33;;;;;;;7.53;4.53;;;17.70;40.40;;;;;;5069828;28;20029;-65
2022/01/27 04:31:00;;;;;;;5.85;3.85;;;17.70;40.40;;;;;;5049461;28;20028;-65
2022/01/27 04:33:29;;;;;;;6.60;4.20;;;17.70;40.40;;;;;;5068772;28;20060;-65
2022/01/27 04:35:59;;;;;;;6.55;4.25;;;17.70;40.40;;;;;;5043558;28;20099;-65
2022/01/27 04:39:18;;;;;;;7.25;4.55;;;17.60;40.30;;;;;;5065736;28;20489;-65
2022/01/27 04:43:47;;;;;;;6.78;4.15;;;17.60;40.40;;;;;;5053646;28;20559;-65
2022/01/27 04:48:43;;;;;;;5.80;3.88;;;17.60;40.40;;;;;;5053116;28;20059;-65
2022/01/27 04:51:13;;;;;;;6.78;4.35;;;17.60;40.40;;;;;;5064923;28;20024;-65
2022/01/27 04:56:24;;;;;;;6.70;4.35;;;17.60;40.50;;;;;;5073585;28;20051;-65
2022/01/27 04:58:55;;;;;;;6.35;4.03;;;17.60;40.50;;;;;;5076389;28;20500;-65
2022/01/27 05:01:27;;;;;;;6.65;4.30;;;17.60;40.50;;;;;;5075676;28;20372;-65
2022/01/27 05:04:12;;;;;;;7.53;4.43;;;17.50;40.40;;;;;;5063342;28;20532;-65
2022/01/27 05:06:38;;;;;;;6.18;4.13;;;17.50;40.40;;;;;;5060811;28;20112;-65
2022/01/27 05:09:04;;;;;;;6.50;4.13;;;17.50;40.50;;;;;;5073343;28;20099;-65
2022/01/27 05:11:35;;;;;;;5.70;3.80;;;17.50;40.50;;;;;;5068186;28;20041;-66
2022/01/27 05:14:16;;;;;;;6.43;3.95;;;17.50;40.50;;;;;;5045477;28;20037;-66
2022/01/27 05:16:42;;;;;;;5.95;4.20;;;17.50;40.50;;;;;;5064040;28;20032;-67
2022/01/27 05:19:08;;;;;;;5.50;4.18;;;17.50;40.50;;;;;;5070115;28;20052;-67
2022/01/27 05:21:34;;;;;;;5.22;3.72;;;17.50;40.50;;;;;;5067094;28;20064;-67
2022/01/27 05:24:00;;;;;;;5.75;3.97;;;17.50;40.50;;;;;;5064863;28;20381;-67
2022/01/27 05:26:26;;;;;;;6.53;4.38;;;17.50;40.50;;;;;;5066587;28;20037;-65
2022/01/27 05:28:52;;;;;;;5.20;3.45;;;17.50;40.70;;;;;;5075146;28;20074;-65
2022/01/27 05:31:17;;;;;;;5.95;3.70;;;17.50;40.60;;;;;;5074699;28;20027;-65
2022/01/27 05:33:43;;;;;;;6.35;4.43;;;17.50;40.50;;;;;;5071707;28;20029;-65
2022/01/27 05:36:09;;;;;;;7.32;4.07;;;17.40;40.50;;;;;;5065204;28;20507;-66
2022/01/27 05:38:37;;;;;;;5.60;3.85;;;17.40;40.50;;;;;;5061394;28;20028;-67
2022/01/27 05:41:03;;;;;;;5.88;3.85;;;17.40;40.50;;;;;;5071258;28;20025;-66
2022/01/27 05:43:30;;;;;;;6.57;3.95;;;17.40;40.50;;;;;;5073234;28;20446;-67
2022/01/27 05:45:55;;;;;;;5.70;3.78;;;17.40;40.50;;;;;;5069963;28;20024;-67
2022/01/27 05:48:22;;;;;;;5.28;3.67;;;17.40;40.60;;;;;;5056864;28;20072;-67
2022/01/27 05:50:48;;;;;;;5.22;3.60;;;17.40;40.60;;;;;;5063603;28;20464;-67
2022/01/27 05:53:14;;;;;;;6.63;4.05;;;17.40;40.50;;;;;;5056694;28;20051;-67
2022/01/27 05:55:39;;;;;;;5.78;3.95;;;17.40;41.50;;;;;;5070090;28;20016;-65
2022/01/27 05:58:05;;;;;;;6.82;4.18;;;17.40;40.60;;;;;;5068011;28;20035;-65
2022/01/27 06:00:31;;;;;;;6.20;3.83;;;17.40;40.50;;;;;;5074166;28;20032;-66
2022/01/27 06:02:58;;;;;;;7.03;4.28;;;17.40;40.60;;;;;;5070600;28;20029;-66
2022/01/27 06:05:24;;;;;;;7.55;4.20;;;17.40;40.60;;;;;;5074982;28;20040;-65
2022/01/27 06:07:50;;;;;;;6.85;4.10;;;17.40;40.50;;;;;;5056523;28;20033;-65
2022/01/27 06:10:15;;;;;;;6.43;3.88;;;17.40;40.60;;;;;;5057354;28;20087;-66
2022/01/27 06:12:46;;;;;;;6.65;4.22;;;17.30;40.50;;;;;;5066821;28;20116;-65
2022/01/27 06:15:11;;;;;;;5.30;3.35;;;17.30;40.50;;;;;;5057274;28;20045;-65
2022/01/27 06:17:37;;;;;;;5.88;4.00;;;17.30;40.50;;;;;;5067141;28;20032;-66
2022/01/27 06:20:03;;;;;;;4.85;3.53;;;17.30;40.50;;;;;;5072982;28;20071;-66
2022/01/27 06:22:29;;;;;;;6.30;4.00;;;17.30;40.50;;;;;;5072293;28;20060;-66
2022/01/27 06:24:54;;;;;;;5.68;3.90;;;17.30;40.50;;;;;;5061207;28;20477;-66
2022/01/27 06:27:20;;;;;;;6.45;3.78;;;17.30;40.60;;;;;;5074456;28;20122;-65
2022/01/27 06:29:46;;;;;;;6.78;4.07;;;17.30;40.60;;;;;;5072770;28;20495;-65
2022/01/27 06:32:11;;;;;;;5.72;3.65;;;17.30;40.60;;;;;;5060089;28;20033;-66
2022/01/27 06:34:37;;;;;;;6.32;3.88;;;17.30;40.60;;;;;;5069196;28;20032;-66
2022/01/27 06:37:03;;;;;;;5.53;3.72;;;17.30;40.70;;;;;;5047345;28;20041;-67
2022/01/27 06:39:29;;;;;;;5.65;3.50;;;17.30;40.70;;;;;;5055272;28;20107;-66
2022/01/27 06:41:54;;;;;;;6.88;3.67;;;17.20;40.60;;;;;;5066248;28;20398;-65
2022/01/27 06:44:20;;;;;;;6.47;3.90;;;17.20;40.60;;;;;;5072303;28;20043;-65
2022/01/27 06:46:45;;;;;;;6.13;3.92;;;17.20;40.60;;;;;;5062507;28;20396;-65
2022/01/27 06:49:16;;;;;;;5.75;3.80;;;17.20;40.60;;;;;;5055243;28;20051;-66
2022/01/27 06:51:43;;;;;;;6.07;3.63;;;17.20;40.60;;;;;;5066604;28;20558;-66
2022/01/27 06:54:09;;;;;;;6.72;3.78;;;17.20;40.70;;;;;;5068968;28;20472;-66
2022/01/27 06:56:34;;;;;;;5.57;3.63;;;17.20;40.70;;;;;;5065865;28;20032;-65
2022/01/27 06:59:00;;;;;;;6.07;4.03;;;17.20;40.80;;;;;;5073098;28;20033;-66
2022/01/27 07:01:25;;;;;;;5.30;3.53;;;17.20;40.70;;;;;;5073870;28;20052;-67
2022/01/27 07:03:51;;;;;;;6.25;3.75;;;17.20;40.80;;;;;;5054967;28;20055;-67
2022/01/27 07:06:17;;;;;;;4.80;3.53;;;17.20;40.70;;;;;;5057493;28;20025;-66
2022/01/27 07:08:43;;;;;;;6.38;4.22;;;17.10;40.70;;;;;;5067694;28;20032;-67
2022/01/27 07:11:09;;;;;;;6.43;3.67;;;17.10;40.70;;;;;;5062099;28;20033;-66
2022/01/27 07:13:40;;;;;;;6.00;3.70;;;17.10;40.70;;;;;;5066644;28;20032;-66
2022/01/27 07:16:08;;;;;;;6.22;3.70;;;17.10;40.70;;;;;;5054781;28;20043;-66
2022/01/27 07:18:34;;;;;;;6.85;4.15;;;17.10;40.70;;;;;;5068550;28;20033;-66
2022/01/27 07:21:00;;;;;;;5.95;3.90;;;17.10;40.70;;;;;;5070667;28;20040;-67
2022/01/27 07:23:26;;;;;;;5.20;3.40;;;17.10;40.80;;;;;;5059648;28;20025;-66
2022/01/27 07:25:52;;;;;;;6.53;4.07;;;17.10;40.80;;;;;;5060385;28;20135;-66
2022/01/27 07:28:17;;;;;;;5.35;3.63;;;17.10;40.80;;;;;;5070888;28;20103;-66
2022/01/27 07:30:43;;;;;;;5.38;3.80;;;17.10;40.80;;;;;;5073030;28;20025;-66
2022/01/27 07:33:09;;;;;;;6.38;3.78;;;17.10;41.80;;;;;;5072217;28;20543;-67
2022/01/27 07:35:34;;;;;;;6.13;3.85;;;17.10;40.80;;;;;;5054492;28;20040;-67
2022/01/27 07:38:00;;;;;;;15.98;9.00;;;17.10;40.90;;;;;;5073624;28;20039;-64
2022/01/27 07:40:26;;;;;;;13.77;8.52;;;16.90;40.20;;;;;;5056581;28;20052;-64
2022/01/27 07:42:51;;;;;;;18.52;8.82;;;16.20;40.80;;;;;;5074264;28;20055;-64
2022/01/27 07:45:18;;;;;;;18.58;8.55;;;15.60;42.00;;;;;;5056113;28;20525;-65
2022/01/27 07:47:43;;;;;;;19.83;9.52;;;15.10;43.60;;;;;;5068510;28;20386;-64
2022/01/27 07:50:09;;;;;;;22.50;11.05;;;14.70;44.80;;;;;;5063750;28;20044;-66
2022/01/27 07:52:35;;;;;;;19.35;9.45;;;14.30;46.10;;;;;;5068859;28;20067;-67
2022/01/27 07:55:00;;;;;;;17.75;9.00;;;14.00;47.50;;;;;;5055551;28;20048;-65
2022/01/27 07:57:26;;;;;;;16.50;8.68;;;13.80;48.40;;;;;;5064366;28;20036;-64
2022/01/27 07:59:52;;;;;;;20.42;10.75;;;13.70;49.40;;;;;;5064891;28;20037;-64
2022/01/27 08:02:17;;;;;;;21.45;10.18;;;13.50;49.80;;;;;;5059317;28;20044;-64
2022/01/27 08:04:43;;;;;;;19.10;9.63;;;13.40;50.60;;;;;;5035302;28;20424;-64
2022/01/27 08:07:10;;;;;;;17.70;9.63;;;13.20;51.40;;;;;;5055418;28;20112;-64
2022/01/27 08:09:36;;;;;;;18.15;7.78;;;13.10;51.80;;;;;;5070750;28;20050;-64
2022/01/27 08:12:02;;;;;;;13.05;6.90;;;13.40;51.90;;;;;;5059052;28;20025;-65
2022/01/27 08:14:27;;;;;;;12.13;6.53;;;13.80;51.00;;;;;;5035665;28;20021;-64
2022/01/27 08:16:53;;;;;;;11.48;5.60;;;14.20;50.10;;;;;;5053341;28;20037;-65
2022/01/27 08:19:19;;;;;;;11.27;5.80;;;14.60;49.20;;;;;;5035032;28;20025;-65
2022/01/27 08:21:44;;;;;;;12.48;5.68;;;15.00;48.50;;;;;;5048542;28;20418;-68
2022/01/27 08:24:11;;;;;;;10.48;6.00;;;15.20;47.90;;;;;;5071900;28;20032;-66
2022/01/27 08:26:43;;;;;;;12.30;6.25;;;15.50;47.30;;;;;;5072866;28;20061;-66
2022/01/27 08:31:43;;;;;;;9.10;4.95;;;16.00;46.30;;;;;;5073230;28;20537;-65
2022/01/27 08:34:14;;;;;;;8.85;4.88;;;16.20;45.80;;;;;;5073641;28;20032;-66
2022/01/27 08:36:41;;;;;;;8.25;4.72;;;16.50;45.40;;;;;;5073268;28;20058;-66
2022/01/27 08:39:06;;;;;;;9.73;5.35;;;16.60;44.90;;;;;;5073316;28;20031;-66
2022/01/27 08:41:33;;;;;;;8.60;4.80;;;16.90;44.70;;;;;;5073416;28;20024;-67
2022/01/27 08:43:59;;;;;;;7.07;4.03;;;17.00;44.30;;;;;;5073686;28;20108;-67
2022/01/27 08:46:24;;;;;;;8.80;4.65;;;17.20;43.80;;;;;;5073372;28;20444;-66
2022/01/27 08:48:50;;;;;;;9.27;4.72;;;17.30;43.60;;;;;;5073022;28;20056;-66
2022/01/27 08:51:21;;;;;;;8.43;4.43;;;17.50;43.30;;;;;;5073268;28;20029;-66
2022/01/27 08:53:46;;;;;;;6.93;4.00;;;17.60;43.00;;;;;;5073536;28;20387;-67
2022/01/27 08:56:13;;;;;;;8.55;4.10;;;17.70;42.70;;;;;;5068258;28;20456;-67
2022/01/27 08:58:39;;;;;;;6.28;3.75;;;17.80;42.40;;;;;;5068736;28;20048;-65
2022/01/27 09:01:05;;;;;;;7.00;4.03;;;18.00;42.10;;;;;;5073609;28;20060;-65
2022/01/27 09:03:30;;;;;;;7.13;4.28;;;18.10;42.10;;;;;;5073104;28;20454;-65
2022/01/27 09:05:56;;;;;;;6.78;4.28;;;18.10;42.30;;;;;;5073305;28;20029;-68
2022/01/27 09:08:21;;;;;;;10.23;5.00;;;18.20;41.70;;;;;;5073154;28;20029;-66
2022/01/27 09:10:48;;;;;;;8.02;5.20;;;18.20;41.60;;;;;;5073263;28;20020;-66
2022/01/27 09:13:15;;;;;;;8.80;5.00;;;18.20;41.40;;;;;;5072981;28;20016;-66
2022/01/27 09:15:41;;;;;;;9.27;5.25;;;18.30;41.30;;;;;;5073561;28;20023;-67
2022/01/27 09:18:07;;;;;;;9.77;5.47;;;18.30;41.50;;;;;;5073092;28;20025;-67
2022/01/27 09:20:32;;;;;;;9.57;5.28;;;18.40;41.30;;;;;;5072992;28;20036;-68
2022/01/27 09:23:00;;;;;;;10.90;4.95;;;18.40;41.30;;;;;;5055436;28;20078;-67
2022/01/27 09:25:31;;;;;;;9.75;5.15;;;18.50;41.20;;;;;;5072916;28;20028;-68
2022/01/27 09:27:58;;;;;;;12.88;5.57;;;18.60;41.00;;;;;;5056506;28;20052;-66
2022/01/27 09:30:25;;;;;;;9.80;4.47;;;18.60;40.70;;;;;;5070573;28;20045;-66
2022/01/27 09:32:51;;;;;;;8.70;4.85;;;18.70;40.60;;;;;;5056761;28;20025;-66
2022/01/27 09:35:17;;;;;;;8.23;4.25;;;18.80;40.50;;;;;;5039207;28;20021;-67
2022/01/27 09:37:42;;;;;;;8.23;4.50;;;18.90;40.30;;;;;;5059444;28;20029;-67
2022/01/27 09:40:10;;;;;;;7.40;4.20;;;19.00;40.20;;;;;;5040183;28;20033;-67
2022/01/27 09:42:37;;;;;;;6.60;3.70;;;19.10;40.00;;;;;;5057514;28;20460;-67
2022/01/27 09:45:05;;;;;;;9.13;4.10;;;19.20;39.90;;;;;;5054063;28;20021;-67
2022/01/27 09:47:34;;;;;;;6.28;3.90;;;19.20;39.70;;;;;;5078911;28;20021;-67
2022/01/27 09:50:24;;;;;;;7.65;4.18;;;19.30;39.60;;;;;;5079476;28;20511;-67
2022/01/27 09:52:50;;;;;;;5.45;3.53;;;19.40;39.50;;;;;;5080262;28;20037;-67
2022/01/27 09:55:16;;;;;;;7.50;4.15;;;19.50;39.40;;;;;;5080700;28;20028;-67
2022/01/27 09:57:42;;;;;;;6.40;3.92;;;19.60;39.30;;;;;;5072587;28;20024;-67
2022/01/27 10:00:08;;;;;;;7.10;4.03;;;19.60;39.10;;;;;;5080715;28;20425;-67
2022/01/27 10:02:33;;;;;;;5.82;3.63;;;19.80;39.10;;;;;;5080432;28;20029;-66
2022/01/27 10:04:59;;;;;;;5.00;3.60;;;19.80;38.90;;;;;;5071069;28;20083;-67
2022/01/27 10:07:28;;;;;;;5.35;3.33;;;19.90;38.80;;;;;;5061568;28;20060;-66
2022/01/27 10:10:02;;;;;;;4.35;3.05;;;19.90;38.60;;;;;;5068539;28;20013;-67
2022/01/27 10:12:34;;;;;;;4.53;3.00;;;20.00;38.50;;;;;;5074931;28;20047;-67
2022/01/27 10:15:05;;;;;;;4.72;3.20;;;20.10;38.50;;;;;;5076736;28;20024;-67
2022/01/27 10:17:33;;;;;;;4.78;2.80;;;20.10;38.30;;;;;;5076947;28;20056;-67
2022/01/27 10:19:59;;;;;;;5.45;3.30;;;20.20;38.30;;;;;;5078125;28;20046;-67
2022/01/27 10:22:25;;;;;;;4.20;2.92;;;20.30;38.20;;;;;;5059902;28;20025;-67
2022/01/27 10:25:09;;;;;;;4.03;2.92;;;20.30;38.10;;;;;;5060136;28;20090;-67
2022/01/27 10:27:55;;;;;;;4.40;2.90;;;20.40;37.80;;;;;;5063477;28;20036;-68
2022/01/27 10:32:50;;;;;;;5.63;2.90;;;20.50;38.80;;;;;;5062040;28;20037;-67
2022/01/27 10:35:19;;;;;;;4.43;2.85;;;20.50;37.70;;;;;;5079416;28;20032;-67
2022/01/27 10:37:57;;;;;;;4.32;3.00;;;20.60;37.70;;;;;;5078499;28;20021;-67
2022/01/27 10:40:35;;;;;;;3.90;2.90;;;20.70;37.50;;;;;;5071203;28;20025;-66
2022/01/27 10:43:22;;;;;;;3.67;2.60;;;20.70;37.50;;;;;;5056566;28;20047;-66
2022/01/27 10:46:08;;;;;;;4.78;2.88;;;20.80;37.30;;;;;;5044920;28;20419;-67
2022/01/27 10:48:39;;;;;;;4.07;2.50;;;20.80;38.10;;;;;;5074195;28;20025;-67
2022/01/27 10:54:04;;;;;;;5.30;3.28;;;20.90;37.20;;;;;;5050611;28;20025;-68
2022/01/27 10:56:38;;;;;;;3.95;2.70;;;21.00;37.00;;;;;;5067435;28;20021;-68
2022/01/27 10:59:12;;;;;;;5.80;3.08;;;21.00;40.20;;;;;;5074370;28;20055;-67
2022/01/27 11:01:43;;;;;;;3.85;2.50;;;21.10;40.70;;;;;;5078299;28;20017;-67
2022/01/27 11:04:11;;;;;;;3.83;2.50;;;21.10;39.90;;;;;;5075198;28;20040;-67
2022/01/27 11:06:59;;;;;;;4.32;2.65;;;21.10;39.60;;;;;;5058991;28;20103;-67
2022/01/27 11:09:26;;;;;;;3.58;2.55;;;21.10;39.20;;;;;;5040445;28;20025;-67
2022/01/27 11:11:53;;;;;;;3.20;2.35;;;21.20;39.30;;;;;;5071226;28;20107;-66
2022/01/27 11:14:20;;;;;;;3.55;2.38;;;21.20;39.10;;;;;;5057421;28;20013;-67
2022/01/27 11:16:49;;;;;;;3.83;2.40;;;21.30;38.90;;;;;;5040239;28;20049;-66
2022/01/27 11:21:50;;;;;;;2.95;2.25;;;21.30;38.70;;;;;;5074436;28;20424;-68
2022/01/27 11:24:25;;;;;;;3.35;2.47;;;21.30;38.70;;;;;;5074873;28;20464;-66
2022/01/27 11:26:56;;;;;;;3.75;2.40;;;21.30;38.60;;;;;;5075555;28;20099;-66
2022/01/27 11:29:24;;;;;;;2.80;2.15;;;21.40;38.60;;;;;;5074202;28;20036;-66
2022/01/27 11:32:14;;;;;;;3.80;2.30;;;21.40;38.40;;;;;;5075705;28;20031;-67
2022/01/27 11:34:50;;;;;;;4.13;2.10;;;21.50;38.30;;;;;;5061873;28;20023;-68
2022/01/27 11:37:18;;;;;;;2.50;1.98;;;21.50;38.30;;;;;;5054387;28;20089;-68
2022/01/27 11:39:53;;;;;;;4.53;2.75;;;21.40;38.40;;;;;;5062507;28;20051;-68
2022/01/27 11:42:35;;;;;;;2.72;1.95;;;21.50;38.30;;;;;;5053598;28;20032;-67
2022/01/27 11:45:23;;;;;;;4.20;2.50;;;21.50;38.20;;;;;;5072756;28;20119;-66
2022/01/27 11:47:54;;;;;;;3.30;2.08;;;21.50;37.90;;;;;;5061267;28;20106;-66
2022/01/27 11:50:35;;;;;;;3.47;2.42;;;21.50;38.20;;;;;;5047105;28;20078;-67
2022/01/27 11:53:05;;;;;;;2.22;1.90;;;21.50;38.20;;;;;;5058299;28;20107;-65
2022/01/27 11:55:34;;;;;;;2.35;1.85;;;21.50;38.30;;;;;;5073263;28;20016;-66
2022/01/27 11:58:19;;;;;;;2.67;2.10;;;21.50;38.20;;;;;;5069901;28;20032;-66
2022/01/27 12:01:06;;;;;;;2.80;2.10;;;21.50;38.20;;;;;;5073764;28;20118;-66
2022/01/27 12:03:33;;;;;;;4.38;2.22;;;21.60;38.10;;;;;;5065478;28;20029;-67
2022/01/27 12:06:19;;;;;;;4.28;2.50;;;21.60;38.20;;;;;;5069385;28;20021;-66
2022/01/27 12:08:45;;;;;;;2.42;2.08;;;21.60;38.10;;;;;;5063873;28;20033;-67
2022/01/27 12:11:42;;;;;;;2.80;2.20;;;21.60;38.30;;;;;;5073334;28;20419;-68
2022/01/27 12:14:07;;;;;;;3.42;2.28;;;21.60;38.20;;;;;;5066685;28;20155;-67
2022/01/27 12:19:00;;;;;;;4.13;2.20;;;21.50;38.20;;;;;;5041589;28;20055;-68
2022/01/27 12:21:46;;;;;;;3.10;2.20;;;21.60;38.30;;;;;;5070605;28;20113;-68
2022/01/27 12:24:15;;;;;;;4.35;2.30;;;21.60;38.30;;;;;;5064528;28;20028;-67
2022/01/27 12:27:04;;;;;;;4.15;2.35;;;21.60;38.30;;;;;;5069820;28;20021;-66
2022/01/27 12:29:37;;;;;;;3.08;2.08;;;21.60;38.40;;;;;;5062337;28;20082;-66
2022/01/27 12:32:18;;;;;;;3.92;2.60;;;21.50;38.60;;;;;;5072400;28;20037;-67
2022/01/27 12:34:55;;;;;;;3.40;2.30;;;21.60;38.80;;;;;;5072760;28;20105;-67
2022/01/27 12:37:31;;;;;;;5.05;2.40;;;21.60;38.70;;;;;;5073516;28;20052;-67
2022/01/27 12:40:00;;;;;;;2.95;2.22;;;21.60;38.80;;;;;;5072572;28;20033;-67
2022/01/27 12:42:32;;;;;;;2.97;2.22;;;21.60;38.80;;;;;;5056690;28;20020;-67
2022/01/27 12:45:06;;;;;;;3.05;2.00;;;21.60;38.90;;;;;;5074714;28;20021;-67
2022/01/27 12:47:32;;;;;;;2.80;2.17;;;21.60;39.00;;;;;;5076271;28;20036;-68
2022/01/27 12:50:07;;;;;;;2.80;1.85;;;21.60;39.10;;;;;;5076860;28;20037;-67
2022/01/27 12:52:39;;;;;;;2.53;1.90;;;21.60;39.00;;;;;;5067126;28;20021;-67
2022/01/27 12:55:06;;;;;;;;;;;21.60;39.00;;;;;;5078896;28;20025;-67
2022/01/27 12:57:32;;;;;;;3.40;1.90;;;21.60;39.00;;;;;;5067824;28;19912;-66
2022/01/27 12:59:59;;;;;;;3.33;1.80;;;21.50;39.30;;;;;;5077587;28;20036;-67
2022/01/27 13:02:26;;;;;;;2.88;1.80;;;21.50;39.40;;;;;;5078403;28;20376;-67
2022/01/27 13:04:58;;;;;;;2.17;1.98;;;21.50;39.30;;;;;;5060977;28;20032;-67
2022/01/27 13:07:25;;;;;;;3.08;2.00;;;21.50;39.30;;;;;;5060528;28;20342;-67
2022/01/27 13:10:05;;;;;;;2.13;1.63;;;21.60;39.30;;;;;;5076895;28;20469;-67
2022/01/27 13:12:53;;;;;;;2.88;1.88;;;21.60;39.30;;;;;;5075820;28;20103;-68
2022/01/27 13:15:25;;;;;;;3.80;2.67;;;21.60;39.20;;;;;;5064051;28;20461;-68
2022/01/27 13:18:00;;;;;;;3.53;2.33;;;21.60;39.00;;;;;;5077033;28;20104;-68
2022/01/27 13:23:10;;;;;;;5.72;2.25;;;21.50;39.00;;;;;;5062567;28;20043;-66
2022/01/27 13:25:42;;;;;;;4.13;2.80;;;21.50;39.10;;;;;;5077713;28;20051;-67
2022/01/27 13:28:18;;;;;;;3.30;2.20;;;21.50;39.20;;;;;;5072586;28;20029;-66
2022/01/27 13:30:45;;;;;;;4.35;2.10;;;21.50;39.10;;;;;;5079607;28;20016;-68
2022/01/27 13:33:15;;;;;;;2.72;1.90;;;21.50;39.10;;;;;;5072270;28;20029;-67
2022/01/27 13:35:41;;;;;;;5.47;2.25;;;21.50;39.10;;;;;;5074021;28;20429;-68
2022/01/27 13:38:25;;;;;;;3.70;2.00;;;21.40;39.00;;;;;;5074963;28;20029;-68
2022/01/27 13:41:25;;;;;;;2.90;2.08;;;21.40;38.90;;;;;;5064014;28;20071;-68
2022/01/27 13:44:08;;;;;;;4.80;2.35;;;21.40;38.90;;;;;;5065193;28;20082;-68
2022/01/27 13:46:35;;;;;;;5.18;2.40;;;21.40;38.90;;;;;;5070298;28;20029;-68
2022/01/27 13:49:27;;;;;;;4.57;2.38;;;21.40;39.00;;;;;;5062764;28;20044;-68